Time;durP1;ratioP1;P1;durP2;ratioP2;P2;SDS_P1;SDS_P2;PMS_P1;PMS_P2;Temp;Humidity;BMP_temperature;BMP_pressure;BME280_temperature;BME280_humidity;BME280_pressure;Samples;Min_cycle;Max_cycle;Signal;HPM_P1;HPM_P2
2021/01/08 00:00:18;;;;;;;0.00;0.00;;;1.10;99.90;;;;;;5073580;28;20197;-67
2021/01/08 00:02:44;;;;;;;0.00;0.00;;;0.90;99.90;;;;;;5073085;28;20216;-68
2021/01/08 00:05:11;;;;;;;0.00;0.00;;;0.90;99.90;;;;;;5073603;28;20196;-67
2021/01/08 00:07:37;;;;;;;0.00;0.00;;;0.80;99.90;;;;;;5073531;28;20192;-68
2021/01/08 00:10:05;;;;;;;0.00;0.00;;;0.90;99.90;;;;;;5073524;28;20203;-67
2021/01/08 00:12:34;;;;;;;0.00;0.00;;;1.00;99.90;;;;;;5072797;28;20704;-68
2021/01/08 00:15:00;;;;;;;0.00;0.00;;;0.90;99.90;;;;;;5073403;28;20192;-67
2021/01/08 00:17:29;;;;;;;0.00;0.00;;;0.90;99.90;;;;;;5073070;28;20192;-67
2021/01/08 00:19:56;;;;;;;0.00;0.00;;;0.90;99.90;;;;;;5073384;28;20265;-67
2021/01/08 00:22:23;;;;;;;0.00;0.00;;;0.90;99.90;;;;;;5072894;28;20220;-67
2021/01/08 00:24:49;;;;;;;0.00;0.00;;;1.00;99.90;;;;;;5072964;28;20204;-67
2021/01/08 00:27:15;;;;;;;0.00;0.00;;;0.90;99.90;;;;;;5073225;28;20192;-67
2021/01/08 00:29:42;;;;;;;0.00;0.00;;;1.00;99.90;;;;;;5073015;28;20773;-67
2021/01/08 00:32:10;;;;;;;0.00;0.00;;;0.90;99.90;;;;;;5072431;28;20219;-67
2021/01/08 00:34:36;;;;;;;0.00;0.00;;;1.00;99.90;;;;;;5072853;28;20196;-67
2021/01/08 00:37:03;;;;;;;0.00;0.00;;;1.00;99.90;;;;;;5072941;28;20291;-67
2021/01/08 00:39:29;;;;;;;0.00;0.00;;;1.00;99.90;;;;;;5072824;28;20216;-67
2021/01/08 00:41:55;;;;;;;0.00;0.00;;;0.90;99.90;;;;;;5072703;28;20216;-67
2021/01/08 00:44:21;;;;;;;0.00;0.00;;;0.90;99.90;;;;;;5072405;28;20207;-67
2021/01/08 00:46:49;;;;;;;0.00;0.00;;;0.90;99.90;;;;;;5072404;28;20200;-67
2021/01/08 00:49:16;;;;;;;0.00;0.00;;;0.90;99.90;;;;;;5072687;28;20539;-67
2021/01/08 00:51:43;;;;;;;0.00;0.00;;;0.90;99.90;;;;;;5072570;28;20201;-67
2021/01/08 00:54:10;;;;;;;0.00;0.00;;;0.90;99.90;;;;;;5072245;28;20664;-67
2021/01/08 00:56:36;;;;;;;0.00;0.00;;;1.00;99.90;;;;;;5072551;28;20273;-67
2021/01/08 00:59:03;;;;;;;0.00;0.00;;;1.00;99.90;;;;;;5071813;28;20217;-67
2021/01/08 01:01:29;;;;;;;0.00;0.00;;;1.10;99.90;;;;;;5072562;28;20246;-67
2021/01/08 01:03:56;;;;;;;0.00;0.00;;;1.00;99.90;;;;;;5072146;28;20197;-67
2021/01/08 01:06:23;;;;;;;0.00;0.00;;;1.00;99.90;;;;;;5072537;28;20258;-67
2021/01/08 01:08:49;;;;;;;0.00;0.00;;;0.90;99.90;;;;;;5072377;28;20572;-67
2021/01/08 01:11:16;;;;;;;0.00;0.00;;;0.90;99.90;;;;;;5072217;28;20197;-67
2021/01/08 01:13:42;;;;;;;0.00;0.00;;;0.90;99.90;;;;;;5071709;28;20704;-67
2021/01/08 01:16:08;;;;;;;0.00;0.00;;;0.80;99.90;;;;;;5072287;28;20192;-67
2021/01/08 01:18:34;;;;;;;0.00;0.00;;;0.70;99.90;;;;;;5072417;28;20217;-67
2021/01/08 01:21:01;;;;;;;0.00;0.00;;;0.80;99.90;;;;;;5072133;28;20199;-68
2021/01/08 01:23:27;;;;;;;0.00;0.00;;;0.80;99.90;;;;;;5071665;28;20274;-68
2021/01/08 01:25:54;;;;;;;0.00;0.00;;;0.90;99.90;;;;;;5071393;28;20664;-67
2021/01/08 01:28:20;;;;;;;0.00;0.00;;;0.90;99.90;;;;;;5071359;28;20196;-67
2021/01/08 01:30:46;;;;;;;0.00;0.00;;;0.80;99.90;;;;;;5071408;28;20197;-67
2021/01/08 01:33:12;;;;;;;0.00;0.00;;;0.90;99.90;;;;;;5070816;28;20227;-67
2021/01/08 01:35:38;;;;;;;0.00;0.00;;;0.90;99.90;;;;;;5071302;28;20193;-67
2021/01/08 01:38:05;;;;;;;0.00;0.00;;;0.90;99.90;;;;;;5071008;28;20586;-67
2021/01/08 01:40:31;;;;;;;0.00;0.00;;;0.90;99.90;;;;;;5071406;28;20201;-67
2021/01/08 01:42:58;;;;;;;0.00;0.00;;;0.80;99.90;;;;;;5070743;28;20220;-68
2021/01/08 01:45:24;;;;;;;0.00;0.00;;;0.80;99.90;;;;;;5071248;28;20216;-68
2021/01/08 01:47:50;;;;;;;0.00;0.00;;;0.80;99.90;;;;;;5071346;28;20243;-67
2021/01/08 01:50:17;;;;;;;0.00;0.00;;;0.90;99.90;;;;;;5071021;28;20219;-67
2021/01/08 01:52:43;;;;;;;0.00;0.00;;;1.00;99.90;;;;;;5070645;28;20239;-67
2021/01/08 01:55:13;;;;;;;0.00;0.00;;;0.90;99.90;;;;;;5070878;28;20691;-67
2021/01/08 01:57:39;;;;;;;0.00;0.00;;;1.00;99.90;;;;;;5070898;28;20197;-67
2021/01/08 02:00:06;;;;;;;0.00;0.00;;;1.00;99.90;;;;;;5071066;28;20204;-71
2021/01/08 02:02:36;;;;;;;0.00;0.00;;;1.00;99.90;;;;;;5070528;28;20212;-67
2021/01/08 02:05:06;;;;;;;0.00;0.00;;;1.00;99.90;;;;;;5070962;28;20204;-67
2021/01/08 02:07:36;;;;;;;0.00;0.00;;;1.00;99.90;;;;;;5070581;28;20211;-67
2021/01/08 02:10:05;;;;;;;0.00;0.00;;;1.00;99.90;;;;;;5071850;28;20196;-67
2021/01/08 02:12:35;;;;;;;0.00;0.00;;;0.90;99.90;;;;;;5073752;28;20219;-67
2021/01/08 02:15:03;;;;;;;0.00;0.00;;;0.90;99.90;;;;;;5074493;28;20218;-67
2021/01/08 02:17:30;;;;;;;0.00;0.00;;;0.80;99.90;;;;;;5074365;28;20200;-67
2021/01/08 02:20:01;;;;;;;0.00;0.00;;;0.80;99.90;;;;;;5074339;28;20196;-67
2021/01/08 02:22:31;;;;;;;0.00;0.00;;;0.90;99.90;;;;;;5073795;28;20224;-67
2021/01/08 02:25:06;;;;;;;0.00;0.00;;;0.80;99.90;;;;;;5056620;28;531053;-67
2021/01/08 02:27:35;;;;;;;0.00;0.00;;;0.80;99.90;;;;;;5075413;28;20807;-67
2021/01/08 02:30:02;;;;;;;0.00;0.00;;;0.90;99.90;;;;;;5075393;28;20196;-67
2021/01/08 02:32:29;;;;;;;0.00;0.00;;;0.80;99.90;;;;;;5075102;28;20224;-67
2021/01/08 02:34:56;;;;;;;0.00;0.00;;;0.70;99.90;;;;;;5075212;28;20207;-67
2021/01/08 02:37:23;;;;;;;0.00;0.00;;;0.70;99.90;;;;;;5075307;28;20204;-68
2021/01/08 02:39:49;;;;;;;0.00;0.00;;;0.80;99.90;;;;;;5075261;28;20220;-68
2021/01/08 02:42:17;;;;;;;0.00;0.00;;;0.80;99.90;;;;;;5074684;28;20223;-68
2021/01/08 02:44:44;;;;;;;0.00;0.00;;;0.90;99.90;;;;;;5075060;28;20246;-68
2021/01/08 02:47:10;;;;;;;0.00;0.00;;;0.90;99.90;;;;;;5074949;28;20566;-68
2021/01/08 02:49:36;;;;;;;0.00;0.00;;;1.00;99.90;;;;;;5075056;28;20196;-68
2021/01/08 02:52:07;;;;;;;0.00;0.00;;;1.00;99.90;;;;;;5074997;28;20227;-68
2021/01/08 02:54:33;;;;;;;0.00;0.00;;;1.00;99.90;;;;;;5074756;28;20207;-68
2021/01/08 02:57:02;;;;;;;0.00;0.00;;;0.90;99.90;;;;;;5074862;28;20193;-68
2021/01/08 02:59:29;;;;;;;0.00;0.00;;;1.00;99.90;;;;;;5074647;28;20212;-68
2021/01/08 03:01:56;;;;;;;0.00;0.00;;;1.00;99.90;;;;;;5074553;28;20262;-68
2021/01/08 03:04:23;;;;;;;0.00;0.00;;;1.00;99.90;;;;;;5074471;28;20207;-68
2021/01/08 03:06:52;;;;;;;0.00;0.00;;;1.10;99.90;;;;;;5074838;28;20566;-68
2021/01/08 03:09:19;;;;;;;0.00;0.00;;;0.90;99.90;;;;;;5074684;28;20200;-68
2021/01/08 03:11:51;;;;;;;0.00;0.00;;;1.00;99.90;;;;;;5074559;28;20201;-68
2021/01/08 03:14:17;;;;;;;0.00;0.00;;;1.00;99.90;;;;;;5074367;28;20206;-68
2021/01/08 03:16:45;;;;;;;0.00;0.00;;;1.00;99.90;;;;;;5074221;28;20254;-68
2021/01/08 03:19:11;;;;;;;0.00;0.00;;;1.00;99.90;;;;;;5074700;28;20274;-68
2021/01/08 03:21:37;;;;;;;0.00;0.00;;;1.00;99.90;;;;;;5073810;28;20205;-68
2021/01/08 03:24:03;;;;;;;0.00;0.00;;;1.10;99.90;;;;;;5073638;28;20211;-68
2021/01/08 03:26:30;;;;;;;0.00;0.00;;;1.10;99.90;;;;;;5074294;28;20209;-68
2021/01/08 03:28:56;;;;;;;0.00;0.00;;;1.10;99.90;;;;;;5074252;28;20196;-68
2021/01/08 03:31:22;;;;;;;0.00;0.00;;;1.20;99.90;;;;;;5074159;28;20208;-68
2021/01/08 03:33:49;;;;;;;0.00;0.00;;;1.10;99.90;;;;;;5073879;28;20251;-68
2021/01/08 03:36:15;;;;;;;0.00;0.00;;;1.20;99.90;;;;;;5074198;28;20572;-68
2021/01/08 03:38:41;;;;;;;0.00;0.00;;;1.20;99.90;;;;;;5073831;28;20223;-68
2021/01/08 03:41:07;;;;;;;0.00;0.00;;;1.20;99.90;;;;;;5074164;28;20214;-68
2021/01/08 03:43:33;;;;;;;0.00;0.00;;;1.20;99.90;;;;;;5073707;28;20213;-68
2021/01/08 03:45:59;;;;;;;0.00;0.00;;;1.10;99.90;;;;;;5074920;28;20564;-68
2021/01/08 03:48:25;;;;;;;0.00;0.00;;;1.10;99.90;;;;;;5074703;28;20199;-68
2021/01/08 03:50:52;;;;;;;0.00;0.00;;;1.10;99.90;;;;;;5073552;28;20204;-68
2021/01/08 03:53:18;;;;;;;0.00;0.00;;;1.00;99.90;;;;;;5073554;28;20227;-68
2021/01/08 03:55:45;;;;;;;0.00;0.00;;;1.10;99.90;;;;;;5073670;28;20196;-68
2021/01/08 03:58:11;;;;;;;0.00;0.00;;;1.10;99.90;;;;;;5073696;28;20220;-68
2021/01/08 04:00:37;;;;;;;0.00;0.00;;;1.20;99.90;;;;;;5073684;28;20204;-68
2021/01/08 04:03:03;;;;;;;0.00;0.00;;;1.20;99.90;;;;;;5073428;28;20232;-68
2021/01/08 04:05:29;;;;;;;0.00;0.00;;;1.10;99.90;;;;;;5073830;28;20208;-68
2021/01/08 04:07:56;;;;;;;0.00;0.00;;;1.10;99.90;;;;;;5073187;28;20603;-68
2021/01/08 04:10:22;;;;;;;0.00;0.00;;;1.10;99.90;;;;;;5073640;28;20196;-68
2021/01/08 04:12:48;;;;;;;0.00;0.00;;;1.10;99.90;;;;;;5072920;28;20220;-68
2021/01/08 04:15:14;;;;;;;0.00;0.00;;;1.10;99.90;;;;;;5073652;28;20200;-68
2021/01/08 04:17:40;;;;;;;0.00;0.00;;;1.10;99.90;;;;;;5073335;28;20207;-68
2021/01/08 04:20:07;;;;;;;0.00;0.00;;;1.10;99.90;;;;;;5073154;28;20196;-68
2021/01/08 04:22:34;;;;;;;0.00;0.00;;;1.10;99.90;;;;;;5072901;28;20216;-67
2021/01/08 04:25:00;;;;;;;0.00;0.00;;;1.20;1.00;;;;;;5072957;28;20223;-68
2021/01/08 04:27:27;;;;;;;0.00;0.00;;;1.10;1.00;;;;;;5073114;28;20201;-68
2021/01/08 04:29:53;;;;;;;0.00;0.00;;;1.20;1.00;;;;;;5073114;28;20204;-68
2021/01/08 04:32:19;;;;;;;0.00;0.00;;;1.10;1.00;;;;;;5072096;28;20231;-67
2021/01/08 04:34:45;;;;;;;0.00;0.00;;;1.20;1.00;;;;;;5073251;28;20196;-68
2021/01/08 04:37:11;;;;;;;0.00;0.00;;;1.10;1.00;;;;;;5072782;28;20204;-67
2021/01/08 04:39:37;;;;;;;0.00;0.00;;;1.10;1.00;;;;;;5072897;28;20701;-68
2021/01/08 04:42:05;;;;;;;0.00;0.00;;;1.10;1.00;;;;;;5072314;28;20223;-68
2021/01/08 04:44:31;;;;;;;0.00;0.00;;;1.10;1.00;;;;;;5072484;28;20225;-68
2021/01/08 04:46:57;;;;;;;0.00;0.00;;;1.10;1.00;;;;;;5072729;28;20277;-68
2021/01/08 04:49:24;;;;;;;0.00;0.00;;;1.20;1.00;;;;;;5073188;28;20606;-68
2021/01/08 04:51:52;;;;;;;0.00;0.00;;;1.10;1.00;;;;;;5073123;28;20286;-68
2021/01/08 04:54:18;;;;;;;0.00;0.00;;;1.10;1.00;;;;;;5072088;28;20673;-68
2021/01/08 04:56:47;;;;;;;0.00;0.00;;;1.10;1.00;;;;;;5072469;28;20196;-67
2021/01/08 04:59:15;;;;;;;0.00;0.00;;;1.10;1.00;;;;;;5072422;28;20573;-68
2021/01/08 05:01:41;;;;;;;0.00;0.00;;;1.10;1.00;;;;;;5072539;28;20287;-68
2021/01/08 05:04:07;;;;;;;0.00;0.00;;;1.10;99.90;;;;;;5072183;28;20573;-68
2021/01/08 05:06:34;;;;;;;0.00;0.00;;;1.10;99.90;;;;;;5072256;28;20834;-68
2021/01/08 05:09:00;;;;;;;0.00;0.00;;;1.10;99.90;;;;;;5072271;28;20199;-68
2021/01/08 05:11:27;;;;;;;0.00;0.00;;;1.10;99.90;;;;;;5068557;28;20809;-68
2021/01/08 05:13:56;;;;;;;0.00;0.00;;;1.20;99.90;;;;;;5072112;28;20195;-67
2021/01/08 05:16:24;;;;;;;0.00;0.00;;;1.20;99.90;;;;;;5071990;28;20196;-68
2021/01/08 05:18:51;;;;;;;0.00;0.00;;;1.20;99.90;;;;;;5072085;28;20220;-67
2021/01/08 05:21:18;;;;;;;0.00;0.00;;;1.10;99.90;;;;;;5072086;28;20197;-67
2021/01/08 05:23:44;;;;;;;0.00;0.00;;;1.20;99.90;;;;;;5071047;28;20224;-68
2021/01/08 05:26:15;;;;;;;0.00;0.00;;;1.30;99.90;;;;;;5072349;28;20207;-68
2021/01/08 05:28:47;;;;;;;0.00;0.00;;;1.30;99.90;;;;;;5071043;28;20665;-68
2021/01/08 05:31:14;;;;;;;0.00;0.00;;;1.30;99.90;;;;;;5071505;28;20196;-67
2021/01/08 05:33:41;;;;;;;0.00;0.00;;;1.30;99.90;;;;;;5071598;28;20220;-67
2021/01/08 05:36:10;;;;;;;0.00;0.00;;;1.30;99.90;;;;;;5071741;28;20196;-67
2021/01/08 05:38:39;;;;;;;0.00;0.00;;;1.20;99.90;;;;;;5071883;28;20761;-67
2021/01/08 05:41:05;;;;;;;0.00;0.00;;;1.20;99.90;;;;;;5071615;28;20711;-67
2021/01/08 05:43:32;;;;;;;0.00;0.00;;;1.00;99.90;;;;;;5071551;28;20220;-67
2021/01/08 05:46:09;;;;;;;0.00;0.00;;;1.00;99.90;;;;;;5071692;28;20207;-68
2021/01/08 05:48:38;;;;;;;0.00;0.00;;;1.00;99.90;;;;;;5071684;28;20560;-68
2021/01/08 05:51:06;;;;;;;0.00;0.00;;;1.00;99.90;;;;;;5071600;28;20552;-66
2021/01/08 05:53:33;;;;;;;0.00;0.00;;;1.00;99.90;;;;;;5071141;28;20216;-67
2021/01/08 05:55:59;;;;;;;0.00;0.00;;;1.00;99.90;;;;;;5071893;28;20198;-68
2021/01/08 05:58:27;;;;;;;0.00;0.00;;;1.10;99.90;;;;;;5071466;28;20707;-67
2021/01/08 06:00:55;;;;;;;0.00;0.00;;;1.20;99.90;;;;;;5071416;28;20201;-67
2021/01/08 06:03:21;;;;;;;0.00;0.00;;;1.30;99.90;;;;;;5070852;28;20224;-67
2021/01/08 06:05:47;;;;;;;0.00;0.00;;;1.30;99.90;;;;;;5071906;28;20200;-67
2021/01/08 06:08:16;;;;;;;0.00;0.00;;;1.40;99.90;;;;;;5071709;28;20193;-67
2021/01/08 06:10:44;;;;;;;0.00;0.00;;;1.30;99.90;;;;;;5071267;28;20199;-66
2021/01/08 06:13:11;;;;;;;0.00;0.00;;;1.30;99.90;;;;;;5070951;28;20713;-67
2021/01/08 06:15:38;;;;;;;0.00;0.00;;;1.30;99.90;;;;;;5071237;28;20200;-67
2021/01/08 06:18:05;;;;;;;0.00;0.00;;;1.30;99.90;;;;;;5071592;28;20196;-68
2021/01/08 06:20:32;;;;;;;0.00;0.00;;;1.30;99.90;;;;;;5071505;28;20204;-67
2021/01/08 06:22:59;;;;;;;0.00;0.00;;;1.30;99.90;;;;;;5071195;28;20231;-68
2021/01/08 06:25:30;;;;;;;0.00;0.00;;;1.40;99.90;;;;;;5071288;28;20587;-66
2021/01/08 06:28:02;;;;;;;0.00;0.00;;;1.40;99.90;;;;;;5071198;28;20192;-68
2021/01/08 06:30:29;;;;;;;0.00;0.00;;;1.40;93.40;;;;;;5071469;28;20200;-66
2021/01/08 06:33:04;;;;;;;0.00;0.00;;;1.40;58.30;;;;;;5070405;28;20223;-66
2021/01/08 06:35:32;;;;;;;0.00;0.00;;;1.30;30.70;;;;;;5071889;28;20251;-70
2021/01/08 06:37:59;;;;;;;0.00;0.00;;;1.40;44.40;;;;;;5071078;28;20203;-70
2021/01/08 06:40:40;;;;;;;0.00;0.00;;;1.40;42.80;;;;;;5071178;28;20699;-70
2021/01/08 06:43:16;;;;;;;0.00;0.00;;;1.30;9.80;;;;;;5071176;28;20311;-70
2021/01/08 06:46:17;;;;;;;0.00;0.00;;;1.40;3.10;;;;;;5067826;28;20204;-70
2021/01/08 06:48:57;;;;;;;0.00;0.00;;;1.40;1.00;;;;;;5070355;28;20200;-70
2021/01/08 06:51:31;;;;;;;0.00;0.00;;;1.40;1.00;;;;;;5070315;28;20201;-69
2021/01/08 06:57:21;;;;;;;0.00;0.00;;;1.40;1.00;;;;;;5073073;28;20188;-67
2021/01/08 07:00:24;;;;;;;0.00;0.00;;;1.50;1.00;;;;;;5074912;28;20305;-70
2021/01/08 07:10:09;;;;;;;0.00;0.00;;;2.60;1.00;;;;;;5031674;28;20291;-70
2021/01/08 07:16:31;;;;;;;0.00;0.00;;;2.30;99.90;;;;;;5041835;28;20193;-69
2021/01/08 07:19:33;;;;;;;0.00;0.00;;;2.00;1.00;;;;;;5053037;28;20216;-69
2021/01/08 07:22:02;;;;;;;0.00;0.00;;;1.90;1.00;;;;;;5031435;28;20715;-68
2021/01/08 07:24:31;;;;;;;0.00;0.00;;;1.90;1.00;;;;;;5053324;28;20235;-69
2021/01/08 07:27:15;;;;;;;0.00;0.00;;;1.90;99.90;;;;;;5053052;28;20665;-68
2021/01/08 07:29:54;;;;;;;0.00;0.00;;;1.80;99.90;;;;;;5053991;28;20205;-69
2021/01/08 07:32:37;;;;;;;0.00;0.00;;;1.60;99.90;;;;;;5053043;28;20217;-70
2021/01/08 07:35:27;;;;;;;0.00;0.00;;;1.70;99.90;;;;;;5053892;28;20580;-68
2021/01/08 07:38:06;;;;;;;0.00;0.00;;;1.70;1.00;;;;;;5046434;28;20711;-70
2021/01/08 07:40:54;;;;;;;0.00;0.00;;;1.70;1.00;;;;;;5052652;28;20203;-68
2021/01/08 07:50:20;;;;;;;0.00;0.00;;;1.60;1.00;;;;;;5010769;28;20187;-68
2021/01/08 07:56:57;;;;;;;0.00;0.00;;;1.50;1.00;;;;;;4972197;28;20208;-71
2021/01/08 08:02:47;;;;;;;0.00;0.00;;;1.50;1.00;;;;;;5054367;28;20664;-70
2021/01/08 08:05:31;;;;;;;0.00;0.00;;;1.50;1.00;;;;;;5054377;28;20201;-71
2021/01/08 08:08:00;;;;;;;0.00;0.00;;;1.50;1.00;;;;;;5050851;28;20197;-66
2021/01/08 08:10:29;;;;;;;0.00;0.00;;;1.50;1.00;;;;;;5052887;28;20212;-68
2021/01/08 08:13:27;;;;;;;0.00;0.00;;;1.40;1.00;;;;;;5052917;28;20576;-69
2021/01/08 08:15:53;;;;;;;0.00;0.00;;;1.40;1.00;;;;;;5052396;28;20233;-67
2021/01/08 08:18:19;;;;;;;0.00;0.00;;;1.40;1.00;;;;;;5052862;28;20223;-67
2021/01/08 08:20:45;;;;;;;0.00;0.00;;;1.30;1.00;;;;;;5052569;28;20201;-69
2021/01/08 08:23:16;;;;;;;0.00;0.00;;;1.30;1.00;;;;;;5052386;28;20212;-69
2021/01/08 08:25:42;;;;;;;0.00;0.00;;;1.30;1.00;;;;;;5052581;28;20620;-67
2021/01/08 08:28:08;;;;;;;0.00;0.00;;;1.40;7.10;;;;;;5052775;28;20219;-67
2021/01/08 08:30:35;;;;;;;0.00;0.00;;;1.40;39.00;;;;;;5052679;28;20254;-67
2021/01/08 08:33:04;;;;;;;0.00;0.00;;;1.50;40.30;;;;;;5052215;28;20222;-67
2021/01/08 08:35:33;;;;;;;0.00;0.00;;;1.50;4.50;;;;;;5052761;28;20275;-68
2021/01/08 08:38:00;;;;;;;0.00;0.00;;;1.60;1.00;;;;;;5052098;28;20200;-68
2021/01/08 08:40:29;;;;;;;0.00;0.00;;;1.60;1.00;;;;;;5052536;28;20204;-69
2021/01/08 08:42:57;;;;;;;0.00;0.00;;;1.70;1.00;;;;;;5052015;28;20221;-68
2021/01/08 08:45:25;;;;;;;0.00;0.00;;;1.60;1.00;;;;;;5052498;28;20209;-67
2021/01/08 08:47:53;;;;;;;0.00;0.00;;;1.60;1.00;;;;;;5051907;28;20216;-67
2021/01/08 08:50:20;;;;;;;0.00;0.00;;;1.70;1.00;;;;;;5052726;28;20204;-67
2021/01/08 08:52:46;;;;;;;0.00;0.00;;;1.70;1.00;;;;;;5052127;28;20215;-66
2021/01/08 08:55:30;;;;;;;0.00;0.00;;;1.60;1.00;;;;;;5052099;28;20209;-68
2021/01/08 08:58:07;;;;;;;0.00;0.00;;;1.70;1.00;;;;;;5052120;28;20632;-68
2021/01/08 09:01:01;;;;;;;0.00;0.00;;;1.60;1.00;;;;;;5051693;28;20824;-69
2021/01/08 09:03:28;;;;;;;0.00;0.00;;;1.60;99.90;;;;;;5052096;28;20232;-69
2021/01/08 09:05:54;;;;;;;0.00;0.00;;;1.60;1.00;;;;;;5051592;28;20206;-69
2021/01/08 09:08:24;;;;;;;0.00;0.00;;;1.60;99.90;;;;;;5051925;28;20572;-69
2021/01/08 09:10:56;;;;;;;0.00;0.00;;;1.60;1.00;;;;;;5051805;28;20197;-70
2021/01/08 09:14:00;;;;;;;0.00;0.00;;;1.70;1.00;;;;;;5051578;28;20220;-69
2021/01/08 09:16:32;;;;;;;0.00;0.00;;;1.70;1.00;;;;;;5050438;28;20205;-69
2021/01/08 09:19:16;;;;;;;0.00;0.00;;;1.70;1.00;;;;;;5051128;28;20221;-69
2021/01/08 09:21:48;;;;;;;0.00;0.00;;;1.70;1.00;;;;;;5051382;28;20216;-69
2021/01/08 09:27:26;;;;;;;0.00;0.00;;;1.80;1.00;;;;;;5028655;28;20206;-69
2021/01/08 09:33:14;;;;;;;0.00;0.00;;;1.80;1.00;;;;;;5051251;28;20189;-69
2021/01/08 09:35:46;;;;;;;0.00;0.00;;;1.70;1.00;;;;;;5051159;28;20205;-69
2021/01/08 09:38:14;;;;;;;0.00;0.00;;;1.70;1.00;;;;;;5051062;28;20653;-69
2021/01/08 09:40:41;;;;;;;0.00;0.00;;;1.80;1.00;;;;;;5051867;28;20197;-69
2021/01/08 09:43:32;;;;;;;0.00;0.00;;;1.70;1.00;;;;;;5050890;28;20212;-70
2021/01/08 09:46:11;;;;;;;0.00;0.00;;;1.80;1.00;;;;;;5051059;28;20718;-70
2021/01/08 09:52:10;;;;;;;0.00;0.00;;;2.00;1.00;;;;;;5011267;28;20298;-68
2021/01/08 09:54:44;;;;;;;0.00;0.00;;;2.00;1.00;;;;;;5050644;28;20201;-69
2021/01/08 09:57:22;;;;;;;0.00;0.00;;;2.10;1.00;;;;;;5050637;28;20194;-69
2021/01/08 10:03:19;;;;;;;0.00;0.00;;;2.20;1.00;;;;;;5050983;28;20224;-70
2021/01/08 10:06:53;;;;;;;0.00;0.00;;;2.10;99.90;;;;;;5050938;28;20201;-69
2021/01/08 10:09:20;;;;;;;0.00;0.00;;;2.20;99.90;;;;;;5044422;28;20231;-68
2021/01/08 10:11:57;;;;;;;0.00;0.00;;;2.20;99.90;;;;;;5051262;28;20206;-70
2021/01/08 10:14:29;;;;;;;0.00;0.00;;;2.30;99.90;;;;;;5051078;28;20293;-69
2021/01/08 10:20:06;;;;;;;0.00;0.00;;;2.30;99.90;;;;;;5051385;28;20236;-70
2021/01/08 10:22:46;;;;;;;0.00;0.00;;;2.40;99.90;;;;;;5051138;28;20287;-70
2021/01/08 10:25:26;;;;;;;0.00;0.00;;;2.40;99.90;;;;;;5050809;28;20677;-69
2021/01/08 10:28:09;;;;;;;0.00;0.00;;;2.50;99.90;;;;;;5050096;28;20208;-69
2021/01/08 10:34:42;;;;;;;0.00;0.00;;;2.40;99.90;;;;;;5039540;28;20213;-70
2021/01/08 10:38:01;;;;;;;0.00;0.00;;;2.30;99.90;;;;;;5054463;28;20200;-70
2021/01/08 10:40:29;;;;;;;0.00;0.00;;;2.40;99.90;;;;;;5053888;28;20217;-68
2021/01/08 10:42:58;;;;;;;0.00;0.00;;;2.50;99.90;;;;;;5054584;28;20588;-69
2021/01/08 10:45:25;;;;;;;0.00;0.00;;;2.50;99.90;;;;;;5054206;28;20692;-69
2021/01/08 10:47:52;;;;;;;0.00;0.00;;;2.50;99.90;;;;;;5053626;28;20209;-67
2021/01/08 10:50:19;;;;;;;0.00;0.00;;;2.60;99.90;;;;;;5054382;28;20199;-67
2021/01/08 10:52:45;;;;;;;0.00;0.00;;;2.60;99.90;;;;;;5054244;28;20573;-67
2021/01/08 10:55:12;;;;;;;0.00;0.00;;;2.50;99.90;;;;;;5054189;28;20206;-67
2021/01/08 10:57:39;;;;;;;0.00;0.00;;;2.50;87.10;;;;;;5053802;28;20565;-67
2021/01/08 11:00:08;;;;;;;0.00;0.00;;;2.50;78.80;;;;;;5054603;28;20229;-67
2021/01/08 11:02:35;;;;;;;0.00;0.00;;;2.40;86.30;;;;;;5053974;28;20229;-67
2021/01/08 11:05:06;;;;;;;0.00;0.00;;;2.30;1.00;;;;;;5053756;28;20201;-67
2021/01/08 11:07:33;;;;;;;0.00;0.00;;;2.30;1.00;;;;;;5053494;28;20222;-68
2021/01/08 11:10:00;;;;;;;0.00;0.00;;;2.20;1.00;;;;;;5053648;28;20255;-67
2021/01/08 11:12:28;;;;;;;0.00;0.00;;;2.20;1.00;;;;;;5054168;28;20228;-68
2021/01/08 11:14:55;;;;;;;0.00;0.00;;;2.10;1.00;;;;;;5052968;28;20673;-68
2021/01/08 11:17:22;;;;;;;0.00;0.00;;;2.00;1.00;;;;;;5054159;28;20621;-70
2021/01/08 11:19:48;;;;;;;0.00;0.00;;;2.10;49.70;;;;;;5053624;28;20210;-68
2021/01/08 11:22:15;;;;;;;0.00;0.00;;;2.20;99.90;;;;;;5053874;28;20241;-68
2021/01/08 11:24:41;;;;;;;0.00;0.00;;;2.30;86.70;;;;;;5053769;28;20209;-70
2021/01/08 11:27:08;;;;;;;0.00;0.00;;;2.30;88.80;;;;;;5053602;28;20605;-68
2021/01/08 11:29:50;;;;;;;0.00;0.00;;;2.40;70.90;;;;;;5053847;28;20784;-67
2021/01/08 11:32:17;;;;;;;0.00;0.00;;;2.40;45.20;;;;;;5053612;28;20222;-68
2021/01/08 11:34:43;;;;;;;0.00;0.00;;;2.40;11.10;;;;;;5053210;28;20224;-69
2021/01/08 11:37:13;;;;;;;0.00;0.00;;;2.30;3.10;;;;;;5053578;28;20204;-70
2021/01/08 11:39:39;;;;;;;0.00;0.00;;;2.30;98.30;;;;;;5053233;28;20225;-69
2021/01/08 11:42:05;;;;;;;0.00;0.00;;;2.40;99.90;;;;;;5053391;28;20224;-70
2021/01/08 11:44:32;;;;;;;0.00;0.00;;;2.50;95.80;;;;;;5053331;28;20209;-67
2021/01/08 11:46:58;;;;;;;0.00;0.00;;;2.40;59.70;;;;;;5053283;28;20201;-68
2021/01/08 11:49:25;;;;;;;0.00;0.00;;;2.50;41.80;;;;;;5054006;28;20646;-69
2021/01/08 11:51:56;;;;;;;0.00;0.00;;;2.50;70.30;;;;;;5053482;28;20225;-68
2021/01/08 11:54:35;;;;;;;0.00;0.00;;;2.50;39.50;;;;;;5053153;28;20295;-68
2021/01/08 11:57:04;;;;;;;0.00;0.00;;;2.60;49.70;;;;;;5053272;28;20264;-68
2021/01/08 11:59:31;;;;;;;0.00;0.00;;;2.50;1.00;;;;;;5053663;28;20564;-68
2021/01/08 12:02:02;;;;;;;0.00;0.00;;;2.60;1.00;;;;;;5053553;28;20223;-68
2021/01/08 12:04:29;;;;;;;0.00;0.00;;;2.60;1.00;;;;;;5053462;28;20194;-68
2021/01/08 12:06:59;;;;;;;0.00;0.00;;;2.70;1.00;;;;;;5053492;28;20203;-68
2021/01/08 12:09:25;;;;;;;0.00;0.00;;;2.60;1.00;;;;;;5054855;28;20218;-68
2021/01/08 12:11:56;;;;;;;0.00;0.00;;;2.50;1.00;;;;;;5053713;28;20689;-68
2021/01/08 12:14:31;;;;;;;0.00;0.00;;;2.50;1.00;;;;;;5053485;28;20193;-68
2021/01/08 12:17:07;;;;;;;0.00;0.00;;;2.50;1.00;;;;;;5057304;28;20198;-68
2021/01/08 12:26:44;;;;;;;0.00;0.00;;;2.60;1.00;;;;;;4994368;28;20195;-68
2021/01/08 12:30:17;;;;;;;0.00;0.00;;;2.70;1.00;;;;;;5021055;28;20297;-69
2021/01/08 12:39:19;;;;;;;0.00;0.00;;;3.80;1.00;;;;;;5007923;28;20278;-71
2021/01/08 12:45:10;;;;;;;0.00;0.00;;;4.50;99.90;;;;;;5052384;28;20175;-69
2021/01/08 12:47:37;;;;;;;0.00;0.00;;;4.60;1.00;;;;;;5051889;28;20207;-69
2021/01/08 12:50:04;;;;;;;0.00;0.00;;;4.20;29.70;;;;;;5052418;28;20231;-67
2021/01/08 12:52:30;;;;;;;0.00;0.00;;;3.30;1.00;;;;;;5052337;28;20226;-67
2021/01/08 12:54:57;;;;;;;0.00;0.00;;;3.10;50.40;;;;;;5051143;28;20199;-69
2021/01/08 12:57:23;;;;;;;0.00;0.00;;;2.90;99.90;;;;;;5052041;28;20683;-69
2021/01/08 12:59:49;;;;;;;0.00;0.00;;;2.60;99.90;;;;;;5051990;28;20718;-69
2021/01/08 13:02:18;;;;;;;0.00;0.00;;;2.50;99.90;;;;;;5051842;28;20609;-69
2021/01/08 13:04:47;;;;;;;0.00;0.00;;;2.50;99.90;;;;;;5051767;28;20738;-70
2021/01/08 13:08:00;;;;;;;0.00;0.00;;;2.50;1.00;;;;;;5051498;28;20540;-70
2021/01/08 13:10:26;;;;;;;0.00;0.00;;;2.50;1.00;;;;;;5051990;28;20827;-70
2021/01/08 13:16:18;;;;;;;0.00;0.00;;;2.50;1.00;;;;;;5051769;28;20224;-70
2021/01/08 13:22:08;;;;;;;0.00;0.00;;;2.70;1.00;;;;;;5051381;28;20321;-71
2021/01/08 13:24:36;;;;;;;0.00;0.00;;;2.70;1.00;;;;;;5051354;28;20198;-68
2021/01/08 13:27:02;;;;;;;0.00;0.00;;;2.60;1.00;;;;;;5051048;28;20193;-67
2021/01/08 13:29:29;;;;;;;0.00;0.00;;;2.50;1.00;;;;;;5051935;28;20223;-68
2021/01/08 13:31:56;;;;;;;0.00;0.00;;;2.60;1.00;;;;;;5051205;28;20320;-68
2021/01/08 13:34:23;;;;;;;0.00;0.00;;;2.60;1.00;;;;;;5051362;28;20284;-69
2021/01/08 13:37:05;;;;;;;0.10;0.10;;;2.60;1.00;;;;;;5057007;28;20194;-71
2021/01/08 13:39:33;;;;;;;0.25;0.25;;;2.70;1.00;;;;;;5057119;28;20690;-68
2021/01/08 13:42:41;;;;;;;0.25;0.25;;;2.70;1.00;;;;;;5060483;28;20225;-69
2021/01/08 13:45:09;;;;;;;0.22;0.22;;;2.70;1.00;;;;;;5058547;28;20273;-68
2021/01/08 13:47:59;;;;;;;0.80;0.80;;;2.70;1.00;;;;;;5058296;28;20198;-68
2021/01/08 13:50:25;;;;;;;0.95;0.95;;;2.60;1.00;;;;;;5059638;28;20197;-68
2021/01/08 13:52:51;;;;;;;1.55;1.55;;;2.50;1.00;;;;;;5055564;28;20233;-69
2021/01/08 13:55:18;;;;;;;1.73;1.73;;;2.50;1.00;;;;;;5052015;28;20276;-68
2021/01/08 13:57:47;;;;;;;2.60;2.50;;;2.60;1.00;;;;;;5052022;28;20220;-70
2021/01/08 14:00:16;;;;;;;4.10;3.80;;;2.60;1.00;;;;;;5051552;28;20265;-69
2021/01/08 14:02:42;;;;;;;6.25;5.18;;;2.50;1.00;;;;;;5051780;28;20252;-67
2021/01/08 14:05:09;;;;;;;7.75;6.05;;;2.40;1.00;;;;;;5053308;28;20593;-68
2021/01/08 14:07:35;;;;;;;7.05;6.32;;;2.40;1.00;;;;;;5055151;28;20203;-69
2021/01/08 14:10:02;;;;;;;10.32;7.28;;;2.30;1.00;;;;;;5055640;28;20204;-68
2021/01/08 14:12:31;;;;;;;10.02;6.22;;;2.20;1.00;;;;;;5055110;28;20217;-67
2021/01/08 14:14:57;;;;;;;7.82;5.97;;;2.20;1.00;;;;;;5054911;28;20208;-68
2021/01/08 14:17:23;;;;;;;9.82;6.57;;;2.20;1.00;;;;;;5055066;28;20220;-68
2021/01/08 14:19:50;;;;;;;10.52;6.90;;;2.20;1.00;;;;;;5055231;28;20241;-70
2021/01/08 14:22:16;;;;;;;13.20;7.80;;;2.20;1.00;;;;;;5055012;28;20221;-68
2021/01/08 14:24:42;;;;;;;10.38;7.28;;;2.00;1.00;;;;;;5054834;28;20193;-68
2021/01/08 14:27:10;;;;;;;16.50;6.75;;;1.90;1.00;;;;;;5054423;28;20201;-70